Time;durP1;ratioP1;P1;durP2;ratioP2;P2;SDS_P1;SDS_P2;PMS_P1;PMS_P2;Temp;Humidity;BMP_temperature;BMP_pressure;BME280_temperature;BME280_humidity;BME280_pressure;Samples;Min_cycle;Max_cycle;Signal;HPM_P1;HPM_P2
2023/09/29 00:03:12;;;;;;;21.35;6.03;;;;;;;14.50;100.00;101514.41;10465528;28;20063;-73
2023/09/29 00:08:22;;;;;;;16.85;6.72;;;;;;;14.33;100.00;101486.03;10477857;28;20041;-73
2023/09/29 00:13:23;;;;;;;20.50;7.72;;;;;;;14.41;100.00;101504.94;10482954;28;20049;-74
2023/09/29 00:18:23;;;;;;;20.20;7.18;;;;;;;14.38;100.00;101510.16;10455709;28;20049;-73
2023/09/29 00:23:24;;;;;;;22.65;6.68;;;;;;;14.37;100.00;101502.97;10451784;28;20045;-73
2023/09/29 00:28:24;;;;;;;17.67;6.57;;;;;;;14.35;100.00;101499.63;10442095;28;20612;-72
2023/09/29 00:33:25;;;;;;;18.88;6.40;;;;;;;14.27;100.00;101487.91;10455592;28;20048;-73
2023/09/29 00:38:26;;;;;;;15.05;7.18;;;;;;;14.37;100.00;101508.50;10453880;28;20048;-73
2023/09/29 00:43:27;;;;;;;21.52;6.47;;;;;;;14.33;100.00;101486.84;10451097;28;20258;-73
2023/09/29 00:48:30;;;;;;;14.85;7.03;;;;;;;14.34;100.00;101487.69;10450389;28;20464;-72
2023/09/29 00:53:30;;;;;;;12.88;6.45;;;;;;;14.31;100.00;101477.97;10442905;28;20048;-73
2023/09/29 00:58:31;;;;;;;18.55;6.20;;;;;;;14.41;100.00;101488.31;10450640;28;20033;-73
2023/09/29 01:03:31;;;;;;;12.38;5.53;;;;;;;14.42;100.00;101489.13;10447797;28;20032;-74
2023/09/29 01:08:32;;;;;;;15.48;6.18;;;;;;;14.43;100.00;101477.81;10448972;28;20055;-73
2023/09/29 01:13:32;;;;;;;18.70;7.97;;;;;;;14.45;100.00;101475.59;10452803;28;20047;-67
2023/09/29 01:18:33;;;;;;;17.42;6.30;;;;;;;14.46;100.00;101470.88;10450082;28;20056;-73
2023/09/29 01:23:34;;;;;;;15.23;6.95;;;;;;;14.46;100.00;101470.88;10443451;28;20037;-72
2023/09/29 01:28:35;;;;;;;22.98;6.57;;;;;;;14.47;100.00;101480.84;10448899;28;20052;-73
2023/09/29 01:33:39;;;;;;;14.05;6.40;;;;;;;14.44;100.00;101471.16;10450599;28;20048;-74
2023/09/29 01:38:39;;;;;;;25.45;7.18;;;;;;;14.41;100.00;101465.31;10446762;28;20037;-73
2023/09/29 01:43:40;;;;;;;16.15;6.68;;;;;;;14.40;100.00;101461.69;10445242;28;20040;-73
2023/09/29 01:48:41;;;;;;;15.90;6.38;;;;;;;14.39;100.00;101464.75;10450160;28;20037;-72
2023/09/29 01:53:42;;;;;;;22.60;7.82;;;;;;;14.31;100.00;101450.28;10451453;28;20041;-73
2023/09/29 01:58:45;;;;;;;18.20;7.40;;;;;;;14.41;100.00;101454.25;10448220;28;20042;-73
2023/09/29 02:03:48;;;;;;;17.77;7.22;;;;;;;14.41;100.00;101457.00;10446681;28;20048;-73
2023/09/29 02:08:48;;;;;;;14.45;5.72;;;;;;;14.45;100.00;101449.81;10455519;28;20049;-73
2023/09/29 02:13:48;;;;;;;17.75;7.60;;;;;;;14.46;100.00;101445.94;10484565;28;20032;-72
2023/09/29 02:18:49;;;;;;;22.50;7.60;;;;;;;14.48;100.00;101438.22;10478783;28;20038;-73
2023/09/29 02:23:49;;;;;;;13.93;6.88;;;;;;;14.51;100.00;101437.66;10486104;28;20045;-72
2023/09/29 02:28:50;;;;;;;22.83;8.15;;;;;;;14.53;100.00;101419.69;10469467;28;20041;-73
2023/09/29 02:33:52;;;;;;;16.77;7.28;;;;;;;14.27;100.00;101371.59;10482025;28;20048;-73
2023/09/29 02:38:52;;;;;;;26.08;9.02;;;;;;;14.58;100.00;101421.69;10483707;28;20040;-72
2023/09/29 02:43:53;;;;;;;21.20;8.00;;;;;;;14.61;100.00;101418.34;10486038;28;20476;-72
2023/09/29 02:48:53;;;;;;;23.73;8.18;;;;;;;14.63;100.00;101407.84;10482611;28;20041;-73
2023/09/29 02:53:54;;;;;;;20.40;8.05;;;;;;;14.65;100.00;101411.19;10468357;28;20028;-73
2023/09/29 02:58:55;;;;;;;26.30;10.35;;;;;;;14.69;100.00;101417.03;10470767;28;20225;-66
2023/09/29 03:03:58;;;;;;;24.20;9.82;;;;;;;14.73;100.00;101402.34;10463488;28;20055;-72
2023/09/29 03:08:59;;;;;;;23.77;9.48;;;;;;;14.27;100.00;101327.28;10470109;28;20037;-73
2023/09/29 03:13:59;;;;;;;23.90;10.40;;;;;;;14.70;100.00;101366.88;10485722;28;20037;-72
2023/09/29 03:19:00;;;;;;;20.65;8.75;;;;;;;14.76;100.00;101367.75;10478057;28;20029;-72
2023/09/29 03:24:03;;;;;;;17.83;9.48;;;;;;;14.70;100.00;101358.56;10481598;28;20040;-72
2023/09/29 03:29:04;;;;;;;17.95;8.85;;;;;;;14.76;100.00;101361.34;10466196;28;20374;-72
2023/09/29 03:34:04;;;;;;;22.83;12.30;;;;;;;14.76;100.00;101355.81;10477449;28;20064;-73
2023/09/29 03:39:06;;;;;;;18.90;11.32;;;;;;;14.77;100.00;101346.41;10480872;28;20051;-72
2023/09/29 03:44:06;;;;;;;21.10;11.57;;;;;;;14.78;100.00;101340.59;10480174;28;20045;-72
2023/09/29 03:49:10;;;;;;;25.70;13.63;;;;;;;14.81;100.00;101328.13;10479584;28;20036;-73
2023/09/29 03:54:10;;;;;;;21.38;10.52;;;;;;;14.82;100.00;101333.41;10479738;28;20040;-72
2023/09/29 03:59:11;;;;;;;28.60;12.93;;;;;;;14.81;100.00;101325.34;10469542;28;20040;-72
2023/09/29 04:04:11;;;;;;;24.88;11.63;;;;;;;14.80;100.00;101320.91;10465758;28;20044;-73
2023/09/29 04:09:12;;;;;;;25.92;11.85;;;;;;;14.81;100.00;101319.81;10480892;28;20044;-72
2023/09/29 04:14:12;;;;;;;23.88;11.05;;;;;;;14.83;100.00;101315.66;10476635;28;20040;-72
2023/09/29 04:19:13;;;;;;;21.85;11.77;;;;;;;14.89;100.00;101309.03;10480406;28;20043;-72
2023/09/29 04:24:13;;;;;;;29.13;11.60;;;;;;;14.93;100.00;101310.13;10436605;28;1094066;-69
2023/09/29 04:29:14;;;;;;;27.33;12.50;;;;;;;14.97;100.00;101298.53;10480414;28;20044;-70
2023/09/29 04:34:15;;;;;;;26.23;11.57;;;;;;;15.04;100.00;101290.75;10481718;28;20087;-71
2023/09/29 04:39:16;;;;;;;26.65;13.55;;;;;;;15.09;100.00;101299.09;10477997;28;20037;-72
2023/09/29 04:44:16;;;;;;;22.02;12.27;;;;;;;15.13;100.00;101289.94;10482180;28;20045;-72
2023/09/29 04:49:17;;;;;;;20.88;12.48;;;;;;;15.06;100.00;101272.72;10478290;28;20388;-72
2023/09/29 04:54:18;;;;;;;29.95;12.18;;;;;;;15.20;100.00;101277.75;10478983;28;20448;-72
2023/09/29 04:59:18;;;;;;;23.95;11.90;;;;;;;15.25;100.00;101288.84;10461720;28;20408;-73
2023/09/29 05:04:19;;;;;;;25.80;12.15;;;;;;;15.27;100.00;101281.91;10472324;28;20052;-73
2023/09/29 05:09:20;;;;;;;26.55;12.98;;;;;;;15.18;100.00;101261.38;10477497;28;20044;-72
2023/09/29 05:14:20;;;;;;;25.63;13.40;;;;;;;15.34;100.00;101282.47;10458025;28;20029;-73
2023/09/29 05:19:21;;;;;;;27.65;14.00;;;;;;;15.38;100.00;101274.44;10475726;28;20037;-73
2023/09/29 05:24:21;;;;;;;23.63;12.75;;;;;;;15.41;100.00;101284.97;10477766;28;20079;-72
2023/09/29 05:29:22;;;;;;;27.55;13.95;;;;;;;15.43;100.00;101279.16;10472731;28;20051;-73
2023/09/29 05:34:22;;;;;;;20.77;12.80;;;;;;;15.49;100.00;101297.47;10473459;28;20037;-73
2023/09/29 05:39:23;;;;;;;25.60;12.80;;;;;;;15.52;100.00;101281.09;10480520;28;20040;-73
2023/09/29 05:44:24;;;;;;;22.08;12.93;;;;;;;15.53;100.00;101277.22;10475518;28;20045;-73
2023/09/29 05:49:25;;;;;;;21.27;13.20;;;;;;;15.54;100.00;101276.13;10480422;28;20049;-73
2023/09/29 05:54:25;;;;;;;24.52;12.27;;;;;;;15.50;100.00;101258.34;10472827;28;20128;-73
2023/09/29 05:59:26;;;;;;;21.95;12.82;;;;;;;15.60;100.00;101278.88;10459929;28;20532;-73
2023/09/29 06:04:26;;;;;;;28.23;13.75;;;;;;;15.62;100.00;101262.78;10471339;28;20045;-73
2023/09/29 06:09:26;;;;;;;25.08;13.98;;;;;;;15.64;100.00;101253.03;10478669;28;20181;-75
2023/09/29 06:14:31;;;;;;;26.35;13.70;;;;;;;15.68;100.00;101239.44;10474477;28;20037;-73
2023/09/29 06:19:32;;;;;;;24.10;14.77;;;;;;;15.66;100.00;101233.34;10478161;28;20631;-73
2023/09/29 06:24:33;;;;;;;28.13;13.05;;;;;;;15.73;100.00;101239.50;10475012;28;20120;-73
2023/09/29 06:29:33;;;;;;;24.65;11.93;;;;;;;15.74;100.00;101255.03;10457544;28;20049;-73
2023/09/29 06:34:34;;;;;;;18.80;12.70;;;;;;;15.77;100.00;101254.44;10474515;28;20048;-73
2023/09/29 06:39:35;;;;;;;19.20;11.70;;;;;;;15.86;100.00;101250.00;10476104;28;20044;-70
2023/09/29 06:44:35;;;;;;;17.85;11.30;;;;;;;15.90;100.00;101242.78;10476735;28;20040;-66
2023/09/29 06:49:36;;;;;;;17.40;10.30;;;;;;;15.92;100.00;101248.06;10473351;28;20088;-73
2023/09/29 06:54:36;;;;;;;19.10;9.48;;;;;;;15.96;100.00;101251.94;10481903;28;20489;-73
2023/09/29 06:59:37;;;;;;;15.20;9.68;;;;;;;15.94;100.00;101243.88;10475791;28;20116;-74
2023/09/29 07:04:38;;;;;;;13.02;9.15;;;;;;;15.96;100.00;101234.41;10482311;28;20249;-72
2023/09/29 07:09:38;;;;;;;13.75;8.52;;;;;;;15.97;100.00;101234.16;10469875;28;20045;-72
2023/09/29 07:14:39;;;;;;;17.10;8.18;;;;;;;16.05;100.00;101241.06;10486161;28;20044;-73
2023/09/29 07:19:39;;;;;;;12.60;7.45;;;;;;;16.14;100.00;101234.66;10480010;28;20033;-73
2023/09/29 07:24:41;;;;;;;14.90;7.70;;;;;;;16.30;100.00;101240.16;10484484;28;20036;-73
2023/09/29 07:29:42;;;;;;;9.32;6.93;;;;;;;16.46;100.00;101238.16;10477668;28;20041;-72
2023/09/29 07:34:42;;;;;;;10.65;6.18;;;;;;;16.67;100.00;101245.25;10481325;28;20037;-72
2023/09/29 07:39:42;;;;;;;8.35;5.80;;;;;;;16.85;100.00;101256.88;10481746;28;20037;-72
2023/09/29 07:44:43;;;;;;;11.55;5.82;;;;;;;17.08;100.00;101247.81;10481704;28;20044;-72
2023/09/29 07:49:43;;;;;;;8.90;5.20;;;;;;;17.35;100.00;101260.41;10483039;28;20045;-73
2023/09/29 07:54:44;;;;;;;7.93;4.78;;;;;;;17.50;100.00;101257.47;10479673;28;20041;-73
2023/09/29 07:59:44;;;;;;;6.95;4.38;;;;;;;17.71;100.00;101249.81;10479147;28;20586;-73
2023/09/29 08:04:45;;;;;;;8.63;4.57;;;;;;;18.11;100.00;101255.25;10469355;28;20029;-73
2023/09/29 08:09:48;;;;;;;8.13;3.75;;;;;;;18.20;100.00;101267.41;10483734;28;20565;-74
2023/09/29 08:14:50;;;;;;;10.50;4.20;;;;;;;18.18;100.00;101266.06;10476507;28;20471;-73
2023/09/29 08:19:50;;;;;;;8.70;4.22;;;;;;;18.13;100.00;101258.59;10483776;28;20037;-74
2023/09/29 08:24:51;;;;;;;6.22;3.92;;;;;;;18.35;100.00;101264.47;10473606;28;20037;-73
2023/09/29 08:29:51;;;;;;;10.07;3.38;;;;;;;18.59;100.00;101266.38;10447642;28;20045;-74
2023/09/29 08:34:52;;;;;;;7.55;3.83;;;;;;;18.62;100.00;101257.41;10452833;28;20041;-74
2023/09/29 08:39:53;;;;;;;7.28;3.20;;;;;;;18.78;100.00;101262.78;10457212;28;20037;-73
2023/09/29 08:44:54;;;;;;;8.38;4.13;;;;;;;18.92;100.00;101258.97;10429722;28;20037;-75
2023/09/29 08:49:56;;;;;;;5.47;3.20;;;;;;;19.06;100.00;101253.47;10444250;28;20117;-72
2023/09/29 08:54:57;;;;;;;9.65;4.38;;;;;;;19.02;100.00;101246.84;10445363;28;20048;-73
2023/09/29 08:59:58;;;;;;;7.60;3.33;;;;;;;19.17;100.00;101256.09;10431404;28;20037;-73
2023/09/29 09:04:58;;;;;;;5.55;2.90;;;;;;;19.30;100.00;101258.13;10428822;28;20434;-75
2023/09/29 09:09:59;;;;;;;5.35;3.05;;;;;;;19.43;100.00;101256.50;10442825;28;20049;-73
2023/09/29 09:15:00;;;;;;;7.00;3.10;;;;;;;19.68;100.00;101252.47;10450237;28;20049;-76
2023/09/29 09:20:01;;;;;;;8.77;2.90;;;;;;;19.87;100.00;101244.88;10446203;28;20285;-75
2023/09/29 09:25:02;;;;;;;4.35;2.65;;;;;;;20.14;100.00;101241.25;10452868;28;20041;-78
2023/09/29 09:30:02;;;;;;;7.50;2.63;;;;;;;20.41;100.00;101242.41;10469428;28;20048;-75
2023/09/29 09:35:04;;;;;;;4.95;2.65;;;;;;;20.63;100.00;101261.25;10470165;28;20036;-77
2023/09/29 09:40:06;;;;;;;6.13;2.45;;;;;;;20.84;100.00;101249.63;10478159;28;20076;-75
2023/09/29 09:45:08;;;;;;;6.40;2.40;;;;;;;21.11;100.00;101255.13;10479005;28;20040;-76
2023/09/29 09:50:09;;;;;;;3.92;2.15;;;;;;;21.11;100.00;101255.13;10456405;28;20043;-75
2023/09/29 09:55:11;;;;;;;6.07;2.25;;;;;;;21.09;100.00;101251.00;10479867;28;20062;-75
2023/09/29 10:00:12;;;;;;;4.70;2.30;;;;;;;21.17;100.00;101259.44;10470012;28;20161;-75
2023/09/29 10:05:22;;;;;;;4.45;2.55;;;;;;;21.25;100.00;101257.03;10475158;28;20036;-78
2023/09/29 10:10:27;;;;;;;7.13;2.30;;;;;;;21.14;100.00;101248.88;10473583;28;20041;-76
2023/09/29 10:15:30;;;;;;;9.18;3.83;;;;;;;21.08;100.00;101238.13;10477216;28;20536;-76
2023/09/29 10:20:33;;;;;;;5.90;2.40;;;;;;;21.33;100.00;101245.06;10462374;28;20033;-74
2023/09/29 10:25:38;;;;;;;4.32;2.03;;;;;;;21.65;100.00;101234.78;10443485;28;20075;-77
2023/09/29 10:30:40;;;;;;;4.55;1.98;;;;;;;22.05;100.00;101226.38;10449297;28;20029;-74
2023/09/29 10:35:44;;;;;;;4.90;2.10;;;;;;;21.95;100.00;101239.56;10457913;28;20033;-75
2023/09/29 10:40:45;;;;;;;3.63;1.67;;;;;;;21.66;100.00;101189.59;10452837;28;20174;-75
2023/09/29 10:45:47;;;;;;;5.03;2.83;;;;;;;21.82;100.00;101243.25;10458287;28;20029;-75
2023/09/29 10:50:51;;;;;;;5.28;2.17;;;;;;;21.78;100.00;101245.06;10454635;28;20174;-76
2023/09/29 10:55:52;;;;;;;9.52;2.97;;;;;;;21.44;100.00;101240.91;10467085;28;20103;-74
2023/09/29 11:00:53;;;;;;;7.32;2.03;;;;;;;21.03;100.00;101253.06;10466684;28;20373;-74
2023/09/29 11:06:03;;;;;;;5.13;2.60;;;;;;;20.84;100.00;101263.59;10480226;28;20040;-73
2023/09/29 11:11:06;;;;;;;5.75;2.90;;;;;;;20.68;100.00;101258.34;10460650;28;20407;-73
2023/09/29 11:16:19;;;;;;;7.35;3.05;;;;;;;20.56;100.00;101264.44;10455070;28;20123;-74
2023/09/29 11:21:20;;;;;;;5.28;2.42;;;;;;;20.50;100.00;101278.84;10455430;28;20029;-74
2023/09/29 11:26:20;;;;;;;5.53;2.53;;;;;;;20.47;100.00;101276.69;10449724;28;20094;-74
2023/09/29 11:31:21;;;;;;;6.20;2.72;;;;;;;20.45;100.00;101276.16;10443046;28;20044;-75
2023/09/29 11:36:23;;;;;;;5.95;2.72;;;;;;;20.26;100.00;101285.47;10473513;28;20521;-75
2023/09/29 11:41:24;;;;;;;6.65;4.03;;;;;;;20.11;100.00;101295.00;10480661;28;20044;-74
2023/09/29 11:46:24;;;;;;;7.07;3.50;;;;;;;19.92;100.00;101303.44;10478856;28;20048;-74
2023/09/29 11:51:25;;;;;;;7.70;4.82;;;;;;;19.92;100.00;101292.25;10466557;28;20070;-75
2023/09/29 11:56:26;;;;;;;8.15;3.65;;;;;;;20.26;100.00;101296.66;10478000;28;20539;-75
2023/09/29 12:01:26;;;;;;;7.32;3.97;;;;;;;20.49;100.00;101293.97;10458542;28;20063;-74
2023/09/29 12:06:27;;;;;;;5.15;4.13;;;;;;;20.69;100.00;101301.13;10448242;28;20033;-74
2023/09/29 12:11:27;;;;;;;5.88;3.65;;;;;;;20.87;100.00;101293.75;10447717;28;20052;-75
2023/09/29 12:16:28;;;;;;;7.30;3.72;;;;;;;20.82;100.00;101293.88;10457272;28;20091;-74
2023/09/29 12:21:30;;;;;;;7.18;3.85;;;;;;;20.72;100.00;101298.53;10452874;28;20386;-75
2023/09/29 12:26:31;;;;;;;9.82;4.18;;;;;;;20.54;100.00;101296.66;10449196;28;20048;-75
2023/09/29 12:31:31;;;;;;;6.40;3.78;;;;;;;20.46;100.00;101308.56;10448839;28;20048;-75
2023/09/29 12:36:32;;;;;;;6.72;3.80;;;;;;;20.32;100.00;101315.00;10452347;28;20526;-76
2023/09/29 12:41:32;;;;;;;10.00;5.03;;;;;;;20.45;100.00;101315.31;10452683;28;20093;-75
2023/09/29 12:46:34;;;;;;;8.95;4.30;;;;;;;20.63;100.00;101317.22;10464524;28;20044;-75
2023/09/29 12:51:34;;;;;;;8.10;4.05;;;;;;;20.65;100.00;101320.53;10480024;28;20070;-75
2023/09/29 12:56:35;;;;;;;8.38;5.03;;;;;;;20.67;100.00;101309.84;10476702;28;20033;-75
2023/09/29 13:01:36;;;;;;;8.27;4.68;;;;;;;20.82;100.00;101314.28;10461096;28;20092;-74
2023/09/29 13:06:36;;;;;;;8.35;4.53;;;;;;;20.65;100.00;101312.13;10479343;28;20404;-75
2023/09/29 13:11:38;;;;;;;6.25;3.88;;;;;;;20.31;100.00;101337.66;10473902;28;20045;-74
2023/09/29 13:16:38;;;;;;;3.45;2.25;;;;;;;19.57;100.00;101363.50;10480358;28;20428;-78
2023/09/29 13:21:39;;;;;;;4.22;1.05;;;;;;;18.52;100.00;101405.31;10472942;28;20045;-69
2023/09/29 13:26:42;;;;;;;5.43;1.48;;;;;;;17.58;100.00;101434.22;10447314;28;20063;-73
2023/09/29 13:31:43;;;;;;;3.08;0.90;;;;;;;17.12;100.00;101428.91;10449149;28;20040;-72
2023/09/29 13:36:45;;;;;;;6.00;1.25;;;;;;;16.79;100.00;101422.88;10442252;28;20059;-74
2023/09/29 13:41:45;;;;;;;3.63;1.00;;;;;;;16.80;100.00;101443.97;10445875;28;20060;-70
2023/09/29 13:46:47;;;;;;;3.85;1.20;;;;;;;16.69;100.00;101439.56;10450508;28;20158;-70
2023/09/29 13:51:48;;;;;;;4.53;1.60;;;;;;;16.72;100.00;101442.63;10448934;28;20078;-70
2023/09/29 13:56:48;;;;;;;4.78;1.00;;;;;;;16.74;100.00;101461.78;10439759;28;20143;-69
2023/09/29 14:01:49;;;;;;;2.67;0.77;;;;;;;16.72;100.00;101486.25;10453286;28;20093;-69
2023/09/29 14:06:51;;;;;;;2.95;0.63;;;;;;;16.55;100.00;101486.56;10486027;28;20033;-69
2023/09/29 14:11:51;;;;;;;3.17;1.00;;;;;;;16.43;100.00;101511.03;10482083;28;20047;-69
2023/09/29 14:16:51;;;;;;;2.05;0.57;;;;;;;16.42;100.00;101531.63;10488074;28;20040;-69
2023/09/29 14:21:54;;;;;;;4.28;0.55;;;;;;;16.38;100.00;101524.94;10480735;28;20578;-68
2023/09/29 14:26:54;;;;;;;4.28;1.65;;;;;;;16.60;100.00;101542.19;10478206;28;20052;-70
2023/09/29 14:31:55;;;;;;;5.35;0.50;;;;;;;17.35;100.00;101561.81;10471703;28;20454;-68
2023/09/29 14:36:56;;;;;;;2.25;0.50;;;;;;;17.38;100.00;101556.78;10485548;28;20496;-72
2023/09/29 14:41:56;;;;;;;4.22;0.70;;;;;;;17.03;100.00;101572.47;10481366;28;20052;-68
2023/09/29 14:46:57;;;;;;;5.75;1.30;;;;;;;17.41;100.00;101587.69;10474613;28;20060;-70
2023/09/29 14:51:58;;;;;;;7.00;1.20;;;;;;;17.54;100.00;101597.38;10482668;28;20037;-69
2023/09/29 14:56:59;;;;;;;6.03;1.73;;;;;;;17.19;100.00;101596.34;10477030;28;20511;-70
2023/09/29 15:01:59;;;;;;;5.90;1.77;;;;;;;17.07;100.00;101605.00;10468719;28;20059;-68
2023/09/29 15:07:00;;;;;;;7.43;2.45;;;;;;;17.03;100.00;101617.81;10480763;28;20041;-70
2023/09/29 15:12:00;;;;;;;6.20;1.48;;;;;;;17.26;100.00;101629.44;10467216;28;20037;-70
2023/09/29 15:17:00;;;;;;;9.07;1.75;;;;;;;17.32;100.00;101636.69;10451613;28;20037;-69
2023/09/29 15:22:01;;;;;;;10.23;1.48;;;;;;;17.07;100.00;101632.81;10457036;28;20044;-70
2023/09/29 15:27:01;;;;;;;9.18;1.88;;;;;;;16.83;100.00;101659.56;10444373;28;20064;-70
2023/09/29 15:32:02;;;;;;;13.40;2.78;;;;;;;16.63;100.00;101655.59;10458934;28;20037;-71
2023/09/29 15:37:03;;;;;;;6.82;2.50;;;;;;;16.52;100.00;101671.44;10448216;28;20041;-67
2023/09/29 15:42:04;;;;;;;13.90;3.80;;;;;;;16.58;100.00;101685.31;10458108;28;20072;-69
2023/09/29 15:47:04;;;;;;;6.43;2.15;;;;;;;16.54;100.00;101707.28;10454499;28;20485;-70
2023/09/29 15:52:06;;;;;;;9.52;2.53;;;;;;;16.42;100.00;101710.31;10451768;28;20413;-70
2023/09/29 15:57:08;;;;;;;7.93;3.25;;;;;;;16.32;100.00;101722.22;10448239;28;20056;-70
2023/09/29 16:02:08;;;;;;;16.67;3.60;;;;;;;16.31;100.00;101737.25;10451829;28;20037;-73
2023/09/29 16:07:09;;;;;;;6.85;2.03;;;;;;;16.26;100.00;101744.72;10448500;28;20041;-72
2023/09/29 16:12:09;;;;;;;12.10;2.17;;;;;;;16.29;100.00;101760.84;10447503;28;20596;-71
2023/09/29 16:17:10;;;;;;;7.72;2.60;;;;;;;16.26;100.00;101767.75;10456153;28;20047;-71
2023/09/29 16:22:10;;;;;;;9.95;2.00;;;;;;;16.16;100.00;101787.16;10453757;28;20068;-70
2023/09/29 16:27:11;;;;;;;10.05;3.13;;;;;;;16.09;100.00;101794.91;10449424;28;20033;-71
2023/09/29 16:32:13;;;;;;;9.68;3.45;;;;;;;16.07;100.00;101802.69;10445527;28;20048;-70
2023/09/29 16:37:15;;;;;;;11.38;2.45;;;;;;;16.07;100.00;101797.94;10454708;28;20060;-71
2023/09/29 16:42:15;;;;;;;13.85;2.45;;;;;;;16.01;100.00;101814.88;10453282;28;20034;-73
2023/09/29 16:47:17;;;;;;;8.05;1.85;;;;;;;15.94;100.00;101829.81;10449007;28;20034;-72
2023/09/29 16:52:18;;;;;;;10.48;3.97;;;;;;;15.62;100.00;101835.38;10446483;28;20038;-71
2023/09/29 16:57:19;;;;;;;15.15;3.33;;;;;;;15.46;100.00;101834.41;10449247;28;20044;-71
2023/09/29 17:02:20;;;;;;;9.95;2.72;;;;;;;15.29;100.00;101853.09;10448149;28;20481;-71
2023/09/29 17:07:20;;;;;;;13.82;3.22;;;;;;;15.12;100.00;101867.91;10444470;28;20033;-70
2023/09/29 17:12:21;;;;;;;12.00;2.80;;;;;;;15.00;100.00;101877.47;10455012;28;20060;-71
2023/09/29 17:17:22;;;;;;;9.93;3.13;;;;;;;14.86;100.00;101888.97;10452551;28;20060;-71
2023/09/29 17:22:23;;;;;;;11.13;3.53;;;;;;;14.70;100.00;101893.47;10456107;28;20045;-73
2023/09/29 17:27:24;;;;;;;12.75;3.03;;;;;;;14.52;100.00;101907.59;10477590;28;20060;-73
2023/09/29 17:32:24;;;;;;;11.82;3.53;;;;;;;14.26;100.00;101912.78;10471452;28;20055;-73
2023/09/29 17:37:25;;;;;;;13.63;3.15;;;;;;;14.17;100.00;101941.16;10445903;28;20052;-73
2023/09/29 17:42:26;;;;;;;11.82;3.83;;;;;;;14.05;100.00;101947.59;10457115;28;20082;-73
2023/09/29 17:47:26;;;;;;;11.93;3.25;;;;;;;13.96;100.00;101956.59;10429628;28;20503;-73
2023/09/29 17:52:27;;;;;;;8.73;3.28;;;;;;;13.85;100.00;101961.09;10466631;28;20061;-72
2023/09/29 17:57:28;;;;;;;12.00;3.92;;;;;;;13.75;100.00;101969.25;10479247;28;20052;-73
2023/09/29 18:02:28;;;;;;;16.52;4.28;;;;;;;13.70;100.00;101981.03;10462858;28;20055;-74
2023/09/29 18:07:31;;;;;;;13.20;3.50;;;;;;;13.57;100.00;101982.19;10474951;28;20072;-73
2023/09/29 18:12:31;;;;;;;13.48;5.00;;;;;;;13.47;100.00;101993.88;10483314;28;20462;-73
2023/09/29 18:17:32;;;;;;;19.80;5.30;;;;;;;13.40;100.00;102004.28;10477139;28;20059;-74
2023/09/29 18:22:32;;;;;;;10.43;3.60;;;;;;;13.35;100.00;102011.63;10479276;28;20116;-74
2023/09/29 18:27:33;;;;;;;15.23;4.53;;;;;;;13.22;100.00;102012.72;10476952;28;20033;-73
2023/09/29 18:32:34;;;;;;;13.20;4.38;;;;;;;13.16;100.00;102033.88;10477583;28;20043;-74
2023/09/29 18:37:34;;;;;;;11.10;3.33;;;;;;;13.04;100.00;102039.44;10478876;28;20029;-74
2023/09/29 18:42:35;;;;;;;10.88;3.38;;;;;;;13.01;100.00;102044.59;10476309;28;20041;-74
2023/09/29 18:47:35;;;;;;;19.17;5.32;;;;;;;12.97;100.00;102055.31;10468882;28;20073;-73
2023/09/29 18:52:36;;;;;;;20.52;3.92;;;;;;;12.97;100.00;102054.47;10485645;28;20040;-73
2023/09/29 18:57:36;;;;;;;15.73;4.22;;;;;;;12.92;100.00;102057.97;10486937;28;20133;-74
2023/09/29 19:02:37;;;;;;;18.05;3.83;;;;;;;12.87;100.00;102074.41;10485154;28;20041;-74
2023/09/29 19:07:37;;;;;;;14.35;4.57;;;;;;;12.83;100.00;102087.03;10486043;28;20025;-73
2023/09/29 19:12:38;;;;;;;12.70;3.55;;;;;;;12.72;100.00;102089.53;10489912;28;20101;-73
2023/09/29 19:17:38;;;;;;;23.67;4.93;;;;;;;12.63;100.00;102104.81;10466993;28;20037;-73
2023/09/29 19:22:39;;;;;;;13.18;4.30;;;;;;;12.58;100.00;102104.66;10482085;28;20041;-74
2023/09/29 19:27:39;;;;;;;18.10;4.25;;;;;;;12.51;100.00;102117.75;10477480;28;20041;-74
2023/09/29 19:32:40;;;;;;;13.73;4.68;;;;;;;12.43;100.00;102127.22;10481263;28;20488;-74
2023/09/29 19:37:41;;;;;;;18.00;4.63;;;;;;;12.35;100.00;102126.72;10478399;28;20127;-74
2023/09/29 19:42:41;;;;;;;14.93;3.67;;;;;;;12.23;100.00;102118.38;10477613;28;20123;-74
2023/09/29 19:47:42;;;;;;;21.95;5.03;;;;;;;12.30;100.00;102144.84;10483433;28;20078;-74
2023/09/29 19:52:42;;;;;;;15.27;4.47;;;;;;;12.25;100.00;102144.69;10476249;28;20485;-69
2023/09/29 19:57:44;;;;;;;11.00;3.35;;;;;;;12.23;100.00;102155.13;10480204;28;20044;-74
2023/09/29 20:02:45;;;;;;;10.35;3.75;;;;;;;12.16;100.00;102142.50;10478836;28;20070;-73
2023/09/29 20:07:45;;;;;;;13.02;3.83;;;;;;;12.09;100.00;102150.84;10475522;28;20040;-73
2023/09/29 20:12:46;;;;;;;17.40;3.92;;;;;;;12.00;100.00;102152.25;10481935;28;20040;-74
2023/09/29 20:17:46;;;;;;;12.63;3.30;;;;;;;11.95;100.00;102157.63;10456633;28;20148;-72
2023/09/29 20:22:47;;;;;;;16.95;4.80;;;;;;;11.90;100.00;102167.44;10464455;28;20033;-73
2023/09/29 20:27:47;;;;;;;12.52;3.13;;;;;;;11.87;100.00;102170.66;10464556;28;20049;-74
2023/09/29 20:32:48;;;;;;;18.77;3.75;;;;;;;11.82;100.00;102164.97;10446280;28;20061;-74
2023/09/29 20:37:48;;;;;;;17.13;3.47;;;;;;;11.80;100.00;102174.56;10474388;28;20036;-72
2023/09/29 20:42:49;;;;;;;16.52;4.13;;;;;;;11.76;100.00;102174.19;10476127;28;20036;-71
2023/09/29 20:47:49;;;;;;;11.88;3.53;;;;;;;11.71;100.00;102191.41;10483562;28;20110;-73
2023/09/29 20:52:49;;;;;;;13.32;3.30;;;;;;;11.67;100.00;102192.09;10486240;28;20037;-73
2023/09/29 20:57:50;;;;;;;15.23;3.70;;;;;;;11.65;100.00;102202.53;10479918;28;20048;-74
2023/09/29 21:02:51;;;;;;;11.73;3.53;;;;;;;11.62;100.00;102198.31;10480641;28;20036;-73
2023/09/29 21:07:51;;;;;;;16.90;4.28;;;;;;;11.63;100.00;102196.41;10479412;28;20048;-73
2023/09/29 21:12:52;;;;;;;20.83;5.00;;;;;;;11.60;100.00;102210.66;10462797;28;20041;-74
2023/09/29 21:17:52;;;;;;;16.67;4.32;;;;;;;11.51;100.00;102202.69;10463078;28;20038;-74
2023/09/29 21:22:53;;;;;;;12.95;2.95;;;;;;;11.44;100.00;102212.91;10448864;28;20042;-73
2023/09/29 21:27:53;;;;;;;13.85;4.10;;;;;;;11.41;100.00;102212.53;10455249;28;20048;-73
2023/09/29 21:32:54;;;;;;;15.77;3.65;;;;;;;11.35;100.00;102216.19;10452410;28;20075;-73
2023/09/29 21:37:54;;;;;;;13.95;4.10;;;;;;;11.31;100.00;102210.31;10436653;28;20056;-69
2023/09/29 21:42:55;;;;;;;15.63;4.32;;;;;;;11.28;100.00;102217.09;10475816;28;20048;-73
2023/09/29 21:47:55;;;;;;;9.10;2.63;;;;;;;11.20;100.00;102222.91;10460081;28;20029;-73
2023/09/29 21:52:56;;;;;;;13.43;3.20;;;;;;;11.13;100.00;102233.16;10471325;28;20041;-74
2023/09/29 21:57:56;;;;;;;16.67;3.10;;;;;;;11.05;100.00;102226.00;10471163;28;20074;-74
2023/09/29 22:02:57;;;;;;;15.43;3.38;;;;;;;10.92;100.00;102214.25;10475769;28;20037;-73
2023/09/29 22:07:58;;;;;;;19.88;5.07;;;;;;;10.80;100.00;102222.38;10472963;28;20504;-72
2023/09/29 22:12:58;;;;;;;13.07;3.30;;;;;;;10.82;100.00;102234.03;10478782;28;20065;-72
2023/09/29 22:17:59;;;;;;;21.75;5.43;;;;;;;10.78;100.00;102236.38;10471745;28;20044;-72
2023/09/29 22:23:00;;;;;;;13.55;4.43;;;;;;;10.77;100.00;102239.34;10480630;28;20037;-72
2023/09/29 22:28:01;;;;;;;16.75;4.32;;;;;;;10.48;100.00;102197.63;10485922;28;20056;-73
2023/09/29 22:33:01;;;;;;;15.30;3.92;;;;;;;10.62;100.00;102243.25;10482141;28;20048;-72
2023/09/29 22:38:05;;;;;;;11.02;3.28;;;;;;;10.64;100.00;102248.53;10484205;28;20065;-72